Uakit, Russia
Current Conditions -  °F | °C
As of 4:30 PM on Monday 20 Oct 2014 (Local Time) from UIAA Reporting Station
Clear Clear  
Wind Chill: 13°   Ceiling: Unl
Heat Index: 23°   Visibility: 6mi
Dew Point:   Wind: 9mph
Humidity: 39%   Direction: 260°W
Pressure: 30.21"   Gusts: NA
Location:  55.5°N, 113.63°E
Report Text: UIAA 200830Z 26004MPS 9999 SKC M05/M17 Q1023 NOSIG RMK QFE70829820260
Loading
Personal Weather Stations






























Interactive Weather Map
Tropical Storm Tracking
New forecast layout! Learn more

10-Day Weather Forecast

Advertisements
Track Severe Weather on mobile